createdAt,value
2023-07-22T00:00:32.204Z,13.13
2023-07-22T00:02:59.032Z,13.27
2023-07-22T00:05:26.392Z,13.75
2023-07-22T00:07:53.799Z,14.05
2023-07-22T00:10:20.689Z,13.35
2023-07-22T00:12:47.566Z,13.10
2023-07-22T00:15:14.628Z,13.15
2023-07-22T00:17:42.576Z,12.52
2023-07-22T00:20:12.869Z,13.85
2023-07-22T00:22:43.615Z,13.20
2023-07-22T00:25:13.164Z,12.60
2023-07-22T00:30:08.165Z,12.52
2023-07-22T00:32:35.134Z,11.88
2023-07-22T00:35:07.649Z,12.02
2023-07-22T00:37:34.697Z,12.48
2023-07-22T00:40:03.272Z,12.63
2023-07-22T00:42:29.804Z,12.15
2023-07-22T00:44:56.500Z,12.45
2023-07-22T00:47:23.296Z,11.93
2023-07-22T00:49:50.680Z,12.23
2023-07-22T00:52:17.731Z,12.68
2023-07-22T00:54:45.432Z,12.82
2023-07-22T00:57:13.465Z,12.38
2023-07-22T00:59:41.716Z,11.98
2023-07-22T01:02:08.728Z,12.50
2023-07-22T01:04:36.476Z,12.30
2023-07-22T01:07:08.309Z,13.43
2023-07-22T01:09:39.021Z,11.73
2023-07-22T01:12:09.830Z,12.50
2023-07-22T01:14:41.715Z,11.98
2023-07-22T01:17:12.644Z,11.98
2023-07-22T01:19:40.060Z,12.20
2023-07-22T01:22:11.967Z,12.85
2023-07-22T01:24:39.980Z,12.23
2023-07-22T01:27:11.237Z,11.88
2023-07-22T01:29:37.937Z,12.63
2023-07-22T01:32:04.847Z,12.45
2023-07-22T01:34:32.752Z,11.52
2023-07-22T01:37:00.931Z,12.40
2023-07-22T01:39:28.641Z,11.32
2023-07-22T01:41:55.298Z,12.13
2023-07-22T01:44:21.882Z,11.07
2023-07-22T01:46:48.495Z,11.73
2023-07-22T01:49:15.343Z,11.15
2023-07-22T01:51:42.109Z,11.90
2023-07-22T01:54:10.047Z,11.75
2023-07-22T01:56:37.382Z,11.02
2023-07-22T01:59:04.051Z,11.20
2023-07-22T02:01:30.949Z,12.05
2023-07-22T02:03:57.647Z,11.13
2023-07-22T02:06:24.775Z,11.80
2023-07-22T02:08:51.843Z,10.60
2023-07-22T02:11:18.807Z,12.68
2023-07-22T02:13:45.579Z,11.40
2023-07-22T02:16:15.116Z,10.98
2023-07-22T02:21:08.527Z,11.40
2023-07-22T02:23:35.191Z,10.05
2023-07-22T02:26:02.348Z,11.07
2023-07-22T02:28:29.402Z,11.18
2023-07-22T02:30:56.113Z,11.60
2023-07-22T02:33:23.229Z,11.82
2023-07-22T02:35:50.362Z,11.30
2023-07-22T02:38:17.124Z,11.52
2023-07-22T02:40:44.993Z,12.35
2023-07-22T02:43:11.768Z,11.65
2023-07-22T02:45:38.819Z,11.20
2023-07-22T02:48:06.041Z,12.20
2023-07-22T02:50:32.717Z,12.48
2023-07-22T02:52:59.442Z,11.50
2023-07-22T02:55:26.222Z,11.75
2023-07-22T02:57:52.887Z,11.80
2023-07-22T03:00:24.665Z,10.98
2023-07-22T03:03:01.951Z,11.13
2023-07-22T03:05:29.617Z,12.43
2023-07-22T03:07:57.280Z,12.70
2023-07-22T03:10:25.043Z,12.43
2023-07-22T03:12:55.824Z,11.85
2023-07-22T03:15:27.197Z,12.68
2023-07-22T03:17:54.846Z,13.70
2023-07-22T03:20:23.150Z,13.50
2023-07-22T03:22:50.356Z,13.18
2023-07-22T03:25:20.528Z,13.68
2023-07-22T03:27:47.714Z,13.63
2023-07-22T03:30:16.884Z,15.07
2023-07-22T03:32:45.080Z,15.60
2023-07-22T03:35:14.956Z,15.30
2023-07-22T03:37:41.888Z,13.88
2023-07-22T03:40:20.425Z,13.95
2023-07-22T03:42:51.879Z,15.23
2023-07-22T03:45:19.489Z,14.80
2023-07-22T03:47:48.111Z,15.95
2023-07-22T03:50:15.015Z,14.93
2023-07-22T03:52:41.676Z,15.65
2023-07-22T03:55:08.695Z,17.05
2023-07-22T03:57:36.792Z,16.98
2023-07-22T04:00:05.348Z,16.38
2023-07-22T04:02:39.740Z,17.73
2023-07-22T04:05:06.703Z,15.43
2023-07-22T04:07:33.406Z,17.20
2023-07-22T04:10:00.234Z,15.32
2023-07-22T04:12:26.945Z,17.48
2023-07-22T04:14:53.574Z,17.25
2023-07-22T04:17:20.939Z,16.55
2023-07-22T04:19:47.611Z,15.80
2023-07-22T04:22:14.527Z,14.93
2023-07-22T04:24:41.246Z,13.35
2023-07-22T04:27:08.155Z,14.65
2023-07-22T04:29:34.799Z,14.25
2023-07-22T04:32:06.918Z,16.95
2023-07-22T04:34:33.863Z,16.85
2023-07-22T04:37:00.448Z,17.25
2023-07-22T04:39:27.437Z,17.88
2023-07-22T04:41:54.068Z,17.02
2023-07-22T04:44:21.102Z,16.90
2023-07-22T04:46:47.977Z,17.20
2023-07-22T04:49:18.591Z,17.67
2023-07-22T04:51:48.930Z,18.40
2023-07-22T04:54:16.019Z,17.10
2023-07-22T04:56:43.619Z,16.42
2023-07-22T04:59:10.824Z,17.02
2023-07-22T05:01:38.190Z,16.23
2023-07-22T05:04:06.038Z,17.17
2023-07-22T05:06:33.178Z,17.55
2023-07-22T05:08:59.925Z,18.58
2023-07-22T05:11:26.590Z,15.50
2023-07-22T05:13:53.240Z,16.05
2023-07-22T05:16:19.890Z,15.93
2023-07-22T05:18:46.650Z,16.90
2023-07-22T05:21:13.313Z,17.23
2023-07-22T05:23:40.065Z,16.42
2023-07-22T05:26:06.712Z,16.13
2023-07-22T05:28:33.352Z,15.32
2023-07-22T05:31:00.090Z,14.68
2023-07-22T05:33:27.170Z,15.63
2023-07-22T05:35:53.813Z,16.10
2023-07-22T05:38:20.355Z,14.82
2023-07-22T05:40:47.018Z,14.73
2023-07-22T05:43:13.751Z,17.30
2023-07-22T05:45:40.332Z,15.80
2023-07-22T05:48:07.166Z,16.35
2023-07-22T05:50:33.805Z,15.68
2023-07-22T05:53:00.499Z,15.88
2023-07-22T05:55:27.889Z,15.43
2023-07-22T05:57:55.151Z,15.55
2023-07-22T06:00:21.985Z,15.00
2023-07-22T06:02:49.735Z,15.00
2023-07-22T06:05:16.850Z,15.52
2023-07-22T06:07:43.538Z,14.98
2023-07-22T06:10:13.355Z,13.80
2023-07-22T06:12:40.709Z,13.32
2023-07-22T06:15:07.917Z,14.32
2023-07-22T06:17:34.969Z,14.48
2023-07-22T06:20:02.467Z,14.60
2023-07-22T06:22:29.149Z,14.52
2023-07-22T06:24:55.860Z,13.32
2023-07-22T06:27:23.113Z,14.15
2023-07-22T06:29:49.722Z,14.13
2023-07-22T06:32:16.425Z,14.40
2023-07-22T06:34:43.362Z,13.57
2023-07-22T06:37:09.894Z,14.20
2023-07-22T06:39:36.516Z,12.98
2023-07-22T06:42:03.654Z,13.98
2023-07-22T06:44:31.203Z,14.55
2023-07-22T06:46:58.111Z,14.60
2023-07-22T06:49:24.743Z,14.05
2023-07-22T06:51:51.396Z,13.75
2023-07-22T06:54:18.051Z,13.45
2023-07-22T06:56:44.615Z,13.38
2023-07-22T06:59:11.259Z,13.68
2023-07-22T07:01:37.872Z,13.20
2023-07-22T07:04:04.681Z,13.15
2023-07-22T07:06:31.542Z,14.18
2023-07-22T07:09:01.136Z,13.13
2023-07-22T07:11:30.460Z,13.38
2023-07-22T07:13:57.047Z,13.25
2023-07-22T07:16:27.820Z,13.80
2023-07-22T07:18:55.666Z,12.30
2023-07-22T07:21:23.030Z,12.52
2023-07-22T07:23:50.156Z,13.15
2023-07-22T07:26:16.873Z,13.35
2023-07-22T07:28:43.517Z,13.32
2023-07-22T07:31:10.249Z,13.35
2023-07-22T07:33:37.682Z,12.20
2023-07-22T07:36:05.327Z,13.57
2023-07-22T07:38:32.461Z,13.45
2023-07-22T07:41:02.185Z,13.30
2023-07-22T07:43:28.770Z,12.88
2023-07-22T07:46:18.937Z,13.18
2023-07-22T07:48:50.432Z,14.20
2023-07-22T07:51:18.095Z,13.18
2023-07-22T07:53:46.020Z,12.82
2023-07-22T07:56:13.127Z,13.68
2023-07-22T07:58:40.377Z,13.90
2023-07-22T08:01:07.763Z,13.88
2023-07-22T08:03:36.116Z,13.93
2023-07-22T08:06:03.923Z,13.48
2023-07-22T08:08:31.287Z,14.85
2023-07-22T08:11:09.802Z,14.15
2023-07-22T08:13:37.571Z,13.60
2023-07-22T08:16:09.517Z,13.77
2023-07-22T08:18:37.441Z,14.25
2023-07-22T08:21:06.282Z,13.68
2023-07-22T08:23:35.117Z,14.60
2023-07-22T08:26:01.899Z,13.90
2023-07-22T08:28:28.636Z,14.60
2023-07-22T08:30:56.869Z,13.98
2023-07-22T08:33:38.975Z,13.50
2023-07-22T08:36:08.673Z,14.35
2023-07-22T08:38:35.438Z,13.43
2023-07-22T08:41:02.079Z,13.80
2023-07-22T08:43:29.838Z,14.57
2023-07-22T08:46:00.993Z,14.45
2023-07-22T08:48:30.371Z,13.32
2023-07-22T08:51:03.745Z,15.13
2023-07-22T08:53:30.925Z,14.52
2023-07-22T08:55:57.676Z,15.00
2023-07-22T08:58:25.195Z,15.73
2023-07-22T09:00:52.261Z,15.02
2023-07-22T09:03:20.774Z,14.25
2023-07-22T09:05:47.583Z,14.80
2023-07-22T09:08:14.586Z,15.90
2023-07-22T09:10:42.810Z,15.57
2023-07-22T09:13:09.680Z,14.10
2023-07-22T09:15:37.557Z,13.40
2023-07-22T09:18:05.666Z,13.65
2023-07-22T09:20:32.430Z,13.90
2023-07-22T09:23:12.740Z,14.43
2023-07-22T09:25:42.549Z,11.88
2023-07-22T09:28:09.318Z,12.00
2023-07-22T09:30:39.502Z,11.55
2023-07-22T09:33:20.240Z,12.13
2023-07-22T09:35:48.855Z,11.10
2023-07-22T09:38:18.488Z,10.53
2023-07-22T09:40:45.121Z,10.23
2023-07-22T09:43:15.346Z,9.23
2023-07-22T09:45:41.999Z,8.73
2023-07-22T09:48:10.608Z,8.65
2023-07-22T09:50:37.979Z,9.80
2023-07-22T09:53:05.490Z,9.25
2023-07-22T09:55:33.282Z,9.70
2023-07-22T09:58:06.516Z,9.82
2023-07-22T10:00:36.968Z,8.85
2023-07-22T10:03:08.318Z,8.25
2023-07-22T10:05:36.488Z,9.25
2023-07-22T10:08:03.960Z,9.27
2023-07-22T10:10:36.258Z,8.40
2023-07-22T10:13:04.411Z,8.27
2023-07-22T10:15:34.250Z,9.43
2023-07-22T10:18:02.977Z,8.63
2023-07-22T10:20:30.622Z,8.60
2023-07-22T10:22:57.598Z,9.02
2023-07-22T10:25:24.829Z,9.07
2023-07-22T10:27:53.585Z,8.88
2023-07-22T10:30:20.185Z,8.85
2023-07-22T10:32:51.984Z,8.90
2023-07-22T10:35:24.310Z,8.32
2023-07-22T10:37:53.786Z,8.32
2023-07-22T10:40:21.450Z,9.20
2023-07-22T10:42:55.553Z,8.07
2023-07-22T10:45:30.120Z,8.10
2023-07-22T10:48:05.928Z,7.80
2023-07-22T10:50:48.960Z,8.10
2023-07-22T10:53:27.517Z,8.38
2023-07-22T10:56:03.325Z,8.80
2023-07-22T10:58:32.721Z,7.45
2023-07-22T11:04:19.642Z,7.80
2023-07-22T11:06:47.091Z,8.18
2023-07-22T11:09:28.995Z,8.32
2023-07-22T11:11:55.688Z,7.82
2023-07-22T11:14:23.517Z,8.40
2023-07-22T11:16:50.421Z,7.65
2023-07-22T11:19:19.070Z,8.20
2023-07-22T11:21:47.390Z,7.55
2023-07-22T11:24:14.928Z,8.13
2023-07-22T11:26:42.919Z,7.75
2023-07-22T11:29:10.852Z,7.35
2023-07-22T11:31:46.429Z,7.20
2023-07-22T11:34:18.098Z,7.32
2023-07-22T11:36:45.215Z,7.97
2023-07-22T11:39:14.229Z,7.28
2023-07-22T11:41:44.778Z,7.20
2023-07-22T11:44:16.747Z,6.80
2023-07-22T11:47:06.714Z,7.30
2023-07-22T11:49:39.051Z,6.70
2023-07-22T11:52:10.482Z,5.90
2023-07-22T11:54:38.851Z,6.20
2023-07-22T11:57:25.017Z,6.50
2023-07-22T11:59:57.203Z,5.72
2023-07-22T12:02:26.621Z,6.05
2023-07-22T12:04:53.388Z,6.43
2023-07-22T12:07:27.641Z,5.45
2023-07-22T12:09:57.005Z,5.55
2023-07-22T12:15:19.035Z,4.70
2023-07-22T12:17:47.192Z,4.70
2023-07-22T12:20:15.016Z,4.97
2023-07-22T12:22:42.580Z,4.35
2023-07-22T12:25:09.806Z,5.22
2023-07-22T12:27:38.949Z,5.43
2023-07-22T12:30:08.083Z,5.95
2023-07-22T12:35:01.795Z,5.10
2023-07-22T12:37:29.463Z,6.00
2023-07-22T12:39:57.341Z,5.40
2023-07-22T12:42:24.130Z,5.63
2023-07-22T12:44:50.713Z,5.60
2023-07-22T12:47:17.359Z,5.60
2023-07-22T12:49:43.960Z,5.10
2023-07-22T12:52:10.592Z,5.57
2023-07-22T12:54:37.559Z,4.75
2023-07-22T12:57:04.945Z,4.90
2023-07-22T12:59:31.695Z,4.80
2023-07-22T13:01:59.159Z,4.40
2023-07-22T13:04:26.152Z,4.00
2023-07-22T13:06:53.055Z,4.30
2023-07-22T13:09:20.337Z,4.38
2023-07-22T13:11:47.726Z,4.25
2023-07-22T13:14:15.216Z,4.07
2023-07-22T13:16:41.950Z,4.10
2023-07-22T13:19:08.923Z,4.72
2023-07-22T13:21:35.483Z,4.15
2023-07-22T13:24:02.036Z,3.90
2023-07-22T13:26:28.660Z,4.18
2023-07-22T13:28:55.280Z,4.03
2023-07-22T13:31:21.950Z,4.57
2023-07-22T13:33:48.525Z,3.70
2023-07-22T13:36:15.560Z,4.03
2023-07-22T13:38:42.148Z,3.85
2023-07-22T13:41:09.105Z,4.30
2023-07-22T13:43:35.756Z,4.35
2023-07-22T13:46:02.315Z,3.78
2023-07-22T13:48:28.966Z,3.72
2023-07-22T13:50:55.621Z,3.80
2023-07-22T13:53:22.209Z,3.60
2023-07-22T13:55:51.047Z,3.58
2023-07-22T13:58:19.415Z,3.90
2023-07-22T14:00:46.151Z,3.53
2023-07-22T14:03:12.927Z,3.70
2023-07-22T14:05:39.568Z,3.60
2023-07-22T14:08:06.162Z,3.60
2023-07-22T14:10:32.874Z,3.22
2023-07-22T14:12:59.490Z,3.63
2023-07-22T14:15:26.074Z,3.15
2023-07-22T14:17:52.714Z,3.58
2023-07-22T14:20:20.671Z,3.35
2023-07-22T14:22:47.653Z,3.20
2023-07-22T14:25:14.310Z,2.60
2023-07-22T14:27:41.426Z,2.53
2023-07-22T14:30:09.598Z,3.00
2023-07-22T14:32:37.162Z,2.95
2023-07-22T14:35:05.300Z,2.80
2023-07-22T14:37:31.953Z,2.35
2023-07-22T14:39:58.616Z,2.90
2023-07-22T14:42:25.257Z,3.10
2023-07-22T14:44:51.830Z,2.45
2023-07-22T14:47:18.454Z,2.75
2023-07-22T14:49:45.088Z,2.33
2023-07-22T14:52:11.671Z,2.50
2023-07-22T14:54:38.212Z,2.63
2023-07-22T14:57:05.277Z,2.88
2023-07-22T14:59:31.962Z,2.65
2023-07-22T15:01:59.135Z,2.58
2023-07-22T15:04:25.859Z,2.70
2023-07-22T15:06:52.708Z,2.33
2023-07-22T15:09:19.437Z,2.40
2023-07-22T15:11:46.071Z,2.42
2023-07-22T15:14:12.749Z,2.55
2023-07-22T15:16:39.388Z,2.83
2023-07-22T15:19:06.045Z,2.63
2023-07-22T15:21:32.657Z,2.28
2023-07-22T15:23:59.298Z,2.17
2023-07-22T15:26:25.868Z,2.30
2023-07-22T15:28:53.701Z,2.17
2023-07-22T15:31:21.087Z,2.53
2023-07-22T15:33:48.878Z,2.40
2023-07-22T15:36:15.994Z,2.33
2023-07-22T15:38:42.595Z,2.33
2023-07-22T15:41:09.894Z,2.50
2023-07-22T15:43:36.504Z,2.40
2023-07-22T15:46:03.210Z,2.92
2023-07-22T15:48:29.965Z,2.30
2023-07-22T15:50:56.784Z,3.08
2023-07-22T15:53:23.671Z,2.30
2023-07-22T15:55:50.456Z,2.60
2023-07-22T15:58:18.005Z,2.58
2023-07-22T16:00:44.579Z,2.65
2023-07-22T16:03:12.151Z,2.80
2023-07-22T16:05:38.950Z,2.65
2023-07-22T16:08:05.832Z,2.58
2023-07-22T16:10:35.793Z,2.58
2023-07-22T16:13:03.717Z,2.42
2023-07-22T16:15:32.279Z,2.40
2023-07-22T16:17:59.529Z,2.42
2023-07-22T16:20:26.604Z,2.72
2023-07-22T16:22:53.297Z,2.90
2023-07-22T16:25:20.043Z,2.70
2023-07-22T16:27:46.661Z,2.67
2023-07-22T16:30:13.616Z,2.92
2023-07-22T16:32:43.911Z,2.87
2023-07-22T16:35:13.468Z,2.92
2023-07-22T16:37:40.158Z,3.17
2023-07-22T16:40:08.736Z,2.67
2023-07-22T16:42:39.979Z,2.80
2023-07-22T16:45:08.393Z,3.20
2023-07-22T16:47:36.073Z,3.10
2023-07-22T16:50:03.752Z,2.92
2023-07-22T16:52:30.607Z,2.83
2023-07-22T16:54:57.237Z,2.75
2023-07-22T16:57:23.816Z,2.95
2023-07-22T16:59:50.524Z,2.70
2023-07-22T17:02:17.111Z,3.20
2023-07-22T17:04:43.694Z,2.70
2023-07-22T17:07:11.371Z,3.05
2023-07-22T17:09:37.984Z,2.83
2023-07-22T17:12:05.036Z,2.92
2023-07-22T17:14:31.721Z,2.92
2023-07-22T17:16:58.375Z,2.97
2023-07-22T17:19:25.088Z,2.90
2023-07-22T17:21:51.671Z,2.63
2023-07-22T17:24:18.399Z,2.83
2023-07-22T17:26:45.174Z,2.78
2023-07-22T17:29:11.931Z,2.85
2023-07-22T17:31:38.730Z,2.95
2023-07-22T17:34:05.338Z,3.15
2023-07-22T17:36:32.014Z,2.60
2023-07-22T17:38:58.622Z,2.75
2023-07-22T17:41:25.374Z,3.75
2023-07-22T17:43:52.180Z,3.05
2023-07-22T17:46:18.849Z,2.83
2023-07-22T17:48:47.684Z,2.67
2023-07-22T17:51:14.468Z,3.30
2023-07-22T17:53:41.114Z,2.80
2023-07-22T17:56:07.755Z,2.53
2023-07-22T17:58:34.389Z,2.78
2023-07-22T18:01:03.583Z,2.80
2023-07-22T18:03:30.919Z,3.20
2023-07-22T18:05:57.610Z,3.00
2023-07-22T18:08:25.891Z,2.83
2023-07-22T18:10:54.962Z,2.90
2023-07-22T18:13:21.589Z,2.88
2023-07-22T18:15:48.224Z,3.25
2023-07-22T18:18:14.926Z,2.80
2023-07-22T18:20:42.528Z,2.90
2023-07-22T18:23:09.153Z,3.15
2023-07-22T18:25:38.771Z,2.63
2023-07-22T18:28:05.371Z,2.90
2023-07-22T18:30:31.953Z,3.08
2023-07-22T18:32:58.638Z,2.78
2023-07-22T18:35:25.266Z,3.10
2023-07-22T18:37:51.962Z,2.60
2023-07-22T18:40:18.809Z,2.78
2023-07-22T18:42:45.476Z,2.70
2023-07-22T18:45:12.348Z,2.60
2023-07-22T18:47:39.135Z,2.67
2023-07-22T18:50:06.436Z,2.65
2023-07-22T18:52:33.023Z,2.75
2023-07-22T18:54:59.627Z,3.00
2023-07-22T18:57:26.158Z,2.58
2023-07-22T18:59:52.832Z,2.70
2023-07-22T19:02:19.415Z,3.00
2023-07-22T19:04:46.184Z,2.85
2023-07-22T19:07:12.774Z,2.70
2023-07-22T19:09:39.365Z,2.50
2023-07-22T19:12:06.344Z,3.03
2023-07-22T19:14:33.026Z,2.80
2023-07-22T19:16:59.585Z,2.55
2023-07-22T19:19:26.358Z,3.45
2023-07-22T19:21:54.720Z,2.63
2023-07-22T19:24:21.679Z,2.85
2023-07-22T19:26:48.348Z,2.78
2023-07-22T19:29:14.907Z,3.00
2023-07-22T19:31:41.483Z,3.15
2023-07-22T19:34:09.197Z,3.40
2023-07-22T19:36:36.158Z,3.92
2023-07-22T19:39:02.830Z,3.35
2023-07-22T19:41:29.738Z,3.28
2023-07-22T19:43:56.628Z,3.55
2023-07-22T19:46:23.219Z,3.13
2023-07-22T19:48:50.026Z,3.30
2023-07-22T19:51:16.897Z,3.58
2023-07-22T19:53:45.905Z,4.28
2023-07-22T19:56:13.351Z,3.30
2023-07-22T19:58:40.429Z,3.45
2023-07-22T20:01:07.245Z,3.47
2023-07-22T20:03:40.187Z,2.78
2023-07-22T20:06:07.338Z,3.05
2023-07-22T20:08:33.949Z,3.70
2023-07-22T20:11:00.579Z,3.97
2023-07-22T20:13:27.208Z,3.90
2023-07-22T20:15:53.812Z,3.47
2023-07-22T20:18:20.523Z,2.92
2023-07-22T20:20:47.118Z,3.10
2023-07-22T20:23:13.739Z,3.42
2023-07-22T20:25:40.909Z,2.85
2023-07-22T20:28:07.625Z,3.20
2023-07-22T20:30:34.543Z,2.90
2023-07-22T20:33:01.496Z,3.15
2023-07-22T20:35:28.213Z,3.13
2023-07-22T20:37:55.092Z,2.90
2023-07-22T20:40:21.740Z,2.85
2023-07-22T20:42:48.397Z,2.80
2023-07-22T20:45:18.149Z,3.58
2023-07-22T20:47:44.744Z,3.05
2023-07-22T20:50:12.775Z,3.08
2023-07-22T20:52:39.488Z,2.78
2023-07-22T20:55:07.865Z,2.70
2023-07-22T20:57:35.672Z,3.33
2023-07-22T21:00:04.432Z,3.30
2023-07-22T21:02:31.216Z,3.10
2023-07-22T21:04:57.879Z,3.50
2023-07-22T21:07:24.528Z,3.50
2023-07-22T21:09:51.153Z,3.50
2023-07-22T21:12:17.746Z,4.47
2023-07-22T21:14:44.411Z,3.78
2023-07-22T21:17:11.044Z,3.63
2023-07-22T21:19:37.669Z,3.55
2023-07-22T21:22:05.521Z,4.20
2023-07-22T21:24:32.098Z,4.20
2023-07-22T21:26:58.750Z,4.10
2023-07-22T21:29:25.501Z,4.20
2023-07-22T21:31:52.062Z,4.30
2023-07-22T21:34:18.649Z,4.78
2023-07-22T21:36:45.315Z,4.95
2023-07-22T21:39:11.882Z,5.47
2023-07-22T21:41:38.556Z,5.45
2023-07-22T21:44:05.268Z,6.00
2023-07-22T21:46:31.828Z,5.18
2023-07-22T21:48:58.402Z,4.90
2023-07-22T21:51:25.922Z,6.35
2023-07-22T21:53:52.828Z,7.25
2023-07-22T21:56:19.461Z,8.07
2023-07-22T21:58:46.018Z,7.35
2023-07-22T22:01:12.859Z,8.13
2023-07-22T22:03:39.537Z,9.27
2023-07-22T22:06:06.120Z,10.32
2023-07-22T22:08:32.958Z,9.38
2023-07-22T22:11:04.862Z,9.10
2023-07-22T22:13:33.741Z,9.73
2023-07-22T22:16:01.326Z,9.60
2023-07-22T22:18:28.381Z,9.88
2023-07-22T22:20:55.034Z,11.05
2023-07-22T22:23:21.695Z,10.13
2023-07-22T22:25:48.347Z,9.45
2023-07-22T22:28:14.959Z,7.90
2023-07-22T22:30:41.584Z,9.20
2023-07-22T22:33:08.959Z,8.60
2023-07-22T22:35:35.557Z,9.93
2023-07-22T22:38:02.134Z,10.05
2023-07-22T22:40:28.767Z,8.60
2023-07-22T22:42:55.413Z,8.80
2023-07-22T22:45:22.182Z,10.02
2023-07-22T22:47:48.776Z,10.13
2023-07-22T22:50:15.518Z,8.90
2023-07-22T22:52:47.968Z,13.45
2023-07-22T22:55:15.116Z,11.05
2023-07-22T22:57:41.947Z,11.23
2023-07-22T23:00:09.258Z,11.73
2023-07-22T23:02:36.011Z,11.00
2023-07-22T23:05:02.796Z,9.68
2023-07-22T23:07:31.417Z,10.23
2023-07-22T23:09:58.628Z,9.63
2023-07-22T23:12:25.224Z,9.35
2023-07-22T23:14:53.482Z,9.70
2023-07-22T23:17:20.195Z,10.00
2023-07-22T23:19:46.719Z,9.93
2023-07-22T23:22:13.437Z,9.20
2023-07-22T23:24:40.114Z,10.60
2023-07-22T23:27:07.083Z,9.43
2023-07-22T23:29:33.673Z,9.20
2023-07-22T23:32:00.273Z,9.15
2023-07-22T23:34:26.857Z,9.90
2023-07-22T23:36:53.457Z,9.10
2023-07-22T23:39:19.989Z,7.95
2023-07-22T23:41:46.597Z,8.30
2023-07-22T23:44:13.137Z,8.18
2023-07-22T23:46:39.737Z,7.65
2023-07-22T23:49:06.459Z,7.28
2023-07-22T23:51:33.037Z,8.18
2023-07-22T23:53:59.653Z,6.78
2023-07-22T23:56:26.277Z,6.80
2023-07-22T23:58:52.884Z,7.93
